sensor_id;sensor_type;location;lat;lon;timestamp;P1;durP1;ratioP1;P2;durP2;ratioP2
77430;SDS011;66498;48.564;19.272;2023-08-24T00:00:20;13.63;;;11.57;;
77430;SDS011;66498;48.564;19.272;2023-08-24T00:02:46;16.70;;;11.52;;
77430;SDS011;66498;48.564;19.272;2023-08-24T00:05:12;13.18;;;10.98;;
77430;SDS011;66498;48.564;19.272;2023-08-24T00:07:38;13.50;;;11.95;;
77430;SDS011;66498;48.564;19.272;2023-08-24T00:10:04;13.27;;;11.60;;
77430;SDS011;66498;48.564;19.272;2023-08-24T00:12:30;15.77;;;11.70;;
77430;SDS011;66498;48.564;19.272;2023-08-24T00:14:55;13.52;;;11.35;;
77430;SDS011;66498;48.564;19.272;2023-08-24T00:17:21;14.27;;;11.85;;
77430;SDS011;66498;48.564;19.272;2023-08-24T00:19:48;14.05;;;11.63;;
77430;SDS011;66498;48.564;19.272;2023-08-24T00:22:13;13.35;;;11.40;;
77430;SDS011;66498;48.564;19.272;2023-08-24T00:24:39;13.40;;;11.85;;
77430;SDS011;66498;48.564;19.272;2023-08-24T00:27:04;11.70;;;10.48;;
77430;SDS011;66498;48.564;19.272;2023-08-24T00:29:30;13.57;;;12.07;;
77430;SDS011;66498;48.564;19.272;2023-08-24T00:31:55;15.02;;;13.10;;
77430;SDS011;66498;48.564;19.272;2023-08-24T00:34:22;17.35;;;13.75;;
77430;SDS011;66498;48.564;19.272;2023-08-24T00:36:48;14.50;;;12.98;;
77430;SDS011;66498;48.564;19.272;2023-08-24T00:39:13;16.25;;;13.70;;
77430;SDS011;66498;48.564;19.272;2023-08-24T00:41:39;18.70;;;14.73;;
77430;SDS011;66498;48.564;19.272;2023-08-24T00:44:06;15.90;;;14.02;;
77430;SDS011;66498;48.564;19.272;2023-08-24T00:46:32;17.48;;;14.55;;
77430;SDS011;66498;48.564;19.272;2023-08-24T00:48:59;16.88;;;14.07;;
77430;SDS011;66498;48.564;19.272;2023-08-24T00:51:24;15.60;;;13.48;;
77430;SDS011;66498;48.564;19.272;2023-08-24T00:53:50;15.98;;;13.60;;
77430;SDS011;66498;48.564;19.272;2023-08-24T00:56:16;16.00;;;12.93;;
77430;SDS011;66498;48.564;19.272;2023-08-24T00:58:42;15.40;;;12.13;;
77430;SDS011;66498;48.564;19.272;2023-08-24T01:01:09;15.52;;;12.50;;
77430;SDS011;66498;48.564;19.272;2023-08-24T01:03:35;14.90;;;11.95;;
77430;SDS011;66498;48.564;19.272;2023-08-24T01:06:00;14.30;;;12.05;;
77430;SDS011;66498;48.564;19.272;2023-08-24T01:08:26;14.57;;;12.40;;
77430;SDS011;66498;48.564;19.272;2023-08-24T01:11:02;14.82;;;12.18;;
77430;SDS011;66498;48.564;19.272;2023-08-24T01:13:57;15.63;;;13.02;;
77430;SDS011;66498;48.564;19.272;2023-08-24T01:16:33;14.27;;;12.40;;
77430;SDS011;66498;48.564;19.272;2023-08-24T01:19:05;17.80;;;12.88;;
77430;SDS011;66498;48.564;19.272;2023-08-24T01:21:35;16.23;;;12.80;;
77430;SDS011;66498;48.564;19.272;2023-08-24T01:24:12;16.65;;;13.60;;
77430;SDS011;66498;48.564;19.272;2023-08-24T01:26:42;14.98;;;13.38;;
77430;SDS011;66498;48.564;19.272;2023-08-24T01:29:09;15.63;;;13.10;;
77430;SDS011;66498;48.564;19.272;2023-08-24T01:31:35;16.80;;;14.00;;
77430;SDS011;66498;48.564;19.272;2023-08-24T01:34:01;15.57;;;13.32;;
77430;SDS011;66498;48.564;19.272;2023-08-24T01:36:26;16.40;;;14.10;;
77430;SDS011;66498;48.564;19.272;2023-08-24T01:39:14;15.10;;;13.00;;
77430;SDS011;66498;48.564;19.272;2023-08-24T01:41:49;15.95;;;12.75;;
77430;SDS011;66498;48.564;19.272;2023-08-24T01:44:18;13.60;;;12.10;;
77430;SDS011;66498;48.564;19.272;2023-08-24T01:46:46;13.45;;;11.38;;
77430;SDS011;66498;48.564;19.272;2023-08-24T01:49:17;16.48;;;11.38;;
77430;SDS011;66498;48.564;19.272;2023-08-24T01:51:43;13.48;;;11.23;;
77430;SDS011;66498;48.564;19.272;2023-08-24T01:54:11;13.48;;;11.38;;
77430;SDS011;66498;48.564;19.272;2023-08-24T01:56:37;14.95;;;12.00;;
77430;SDS011;66498;48.564;19.272;2023-08-24T01:59:03;15.05;;;12.57;;
77430;SDS011;66498;48.564;19.272;2023-08-24T02:01:28;13.18;;;11.77;;
77430;SDS011;66498;48.564;19.272;2023-08-24T02:03:54;14.07;;;12.43;;
77430;SDS011;66498;48.564;19.272;2023-08-24T02:06:20;16.17;;;12.80;;
77430;SDS011;66498;48.564;19.272;2023-08-24T02:08:46;15.30;;;13.50;;
77430;SDS011;66498;48.564;19.272;2023-08-24T02:11:12;15.10;;;13.50;;
77430;SDS011;66498;48.564;19.272;2023-08-24T02:13:37;20.08;;;14.57;;
77430;SDS011;66498;48.564;19.272;2023-08-24T02:18:29;15.13;;;13.50;;
77430;SDS011;66498;48.564;19.272;2023-08-24T02:20:55;13.27;;;11.80;;
77430;SDS011;66498;48.564;19.272;2023-08-24T02:23:20;15.10;;;12.75;;
77430;SDS011;66498;48.564;19.272;2023-08-24T02:25:46;15.23;;;12.38;;
77430;SDS011;66498;48.564;19.272;2023-08-24T02:28:11;16.23;;;12.45;;
77430;SDS011;66498;48.564;19.272;2023-08-24T02:30:37;16.92;;;13.10;;
77430;SDS011;66498;48.564;19.272;2023-08-24T02:33:04;14.77;;;13.18;;
77430;SDS011;66498;48.564;19.272;2023-08-24T02:35:29;18.77;;;13.68;;
77430;SDS011;66498;48.564;19.272;2023-08-24T02:37:55;15.32;;;13.38;;
77430;SDS011;66498;48.564;19.272;2023-08-24T02:40:22;16.98;;;13.90;;
77430;SDS011;66498;48.564;19.272;2023-08-24T02:42:47;15.45;;;13.80;;
77430;SDS011;66498;48.564;19.272;2023-08-24T02:45:13;15.48;;;13.57;;
77430;SDS011;66498;48.564;19.272;2023-08-24T02:47:39;16.55;;;13.60;;
77430;SDS011;66498;48.564;19.272;2023-08-24T02:50:04;17.70;;;14.50;;
77430;SDS011;66498;48.564;19.272;2023-08-24T02:52:31;16.75;;;14.48;;
77430;SDS011;66498;48.564;19.272;2023-08-24T02:54:57;17.38;;;14.75;;
77430;SDS011;66498;48.564;19.272;2023-08-24T02:57:23;15.57;;;13.57;;
77430;SDS011;66498;48.564;19.272;2023-08-24T02:59:49;15.18;;;12.98;;
77430;SDS011;66498;48.564;19.272;2023-08-24T03:02:14;14.38;;;11.90;;
77430;SDS011;66498;48.564;19.272;2023-08-24T03:04:40;13.27;;;11.68;;
77430;SDS011;66498;48.564;19.272;2023-08-24T03:07:05;13.25;;;11.57;;
77430;SDS011;66498;48.564;19.272;2023-08-24T03:09:34;13.52;;;11.80;;
77430;SDS011;66498;48.564;19.272;2023-08-24T03:12:00;15.30;;;12.95;;
77430;SDS011;66498;48.564;19.272;2023-08-24T03:14:25;14.55;;;12.98;;
77430;SDS011;66498;48.564;19.272;2023-08-24T03:16:50;16.17;;;13.70;;
77430;SDS011;66498;48.564;19.272;2023-08-24T03:19:16;15.52;;;12.90;;
77430;SDS011;66498;48.564;19.272;2023-08-24T03:21:45;14.27;;;12.00;;
77430;SDS011;66498;48.564;19.272;2023-08-24T03:24:11;15.50;;;12.95;;
77430;SDS011;66498;48.564;19.272;2023-08-24T03:26:36;14.43;;;12.32;;
77430;SDS011;66498;48.564;19.272;2023-08-24T03:29:02;14.10;;;12.60;;
77430;SDS011;66498;48.564;19.272;2023-08-24T03:31:27;16.48;;;13.00;;
77430;SDS011;66498;48.564;19.272;2023-08-24T03:33:53;15.93;;;13.40;;
77430;SDS011;66498;48.564;19.272;2023-08-24T03:36:18;14.65;;;12.75;;
77430;SDS011;66498;48.564;19.272;2023-08-24T03:38:44;15.63;;;13.43;;
77430;SDS011;66498;48.564;19.272;2023-08-24T03:41:10;15.68;;;13.77;;
77430;SDS011;66498;48.564;19.272;2023-08-24T03:43:36;16.73;;;14.90;;
77430;SDS011;66498;48.564;19.272;2023-08-24T03:46:04;17.80;;;15.40;;
77430;SDS011;66498;48.564;19.272;2023-08-24T03:48:31;17.13;;;15.23;;
77430;SDS011;66498;48.564;19.272;2023-08-24T03:50:57;15.52;;;13.25;;
77430;SDS011;66498;48.564;19.272;2023-08-24T03:53:23;14.02;;;12.52;;
77430;SDS011;66498;48.564;19.272;2023-08-24T03:55:54;14.65;;;11.60;;
77430;SDS011;66498;48.564;19.272;2023-08-24T03:58:20;20.27;;;15.10;;
77430;SDS011;66498;48.564;19.272;2023-08-24T04:00:45;16.38;;;13.57;;
77430;SDS011;66498;48.564;19.272;2023-08-24T04:03:11;16.20;;;13.80;;
77430;SDS011;66498;48.564;19.272;2023-08-24T04:05:38;17.38;;;14.48;;
77430;SDS011;66498;48.564;19.272;2023-08-24T04:08:03;18.35;;;14.57;;
77430;SDS011;66498;48.564;19.272;2023-08-24T04:10:29;24.55;;;16.33;;
77430;SDS011;66498;48.564;19.272;2023-08-24T04:12:55;18.05;;;14.35;;
77430;SDS011;66498;48.564;19.272;2023-08-24T04:15:21;20.83;;;14.43;;
77430;SDS011;66498;48.564;19.272;2023-08-24T04:17:47;24.27;;;16.52;;
77430;SDS011;66498;48.564;19.272;2023-08-24T04:20:13;20.73;;;16.08;;
77430;SDS011;66498;48.564;19.272;2023-08-24T04:22:39;22.65;;;16.00;;
77430;SDS011;66498;48.564;19.272;2023-08-24T04:25:05;22.63;;;15.13;;
77430;SDS011;66498;48.564;19.272;2023-08-24T04:27:31;22.30;;;15.98;;
77430;SDS011;66498;48.564;19.272;2023-08-24T04:29:57;20.08;;;14.23;;
77430;SDS011;66498;48.564;19.272;2023-08-24T04:32:23;18.58;;;14.02;;
77430;SDS011;66498;48.564;19.272;2023-08-24T04:34:49;18.30;;;14.00;;
77430;SDS011;66498;48.564;19.272;2023-08-24T04:37:15;15.50;;;12.70;;
77430;SDS011;66498;48.564;19.272;2023-08-24T04:39:40;16.90;;;13.13;;
77430;SDS011;66498;48.564;19.272;2023-08-24T04:42:07;17.88;;;14.02;;
77430;SDS011;66498;48.564;19.272;2023-08-24T04:44:33;18.50;;;13.73;;
77430;SDS011;66498;48.564;19.272;2023-08-24T04:47:04;16.02;;;13.73;;
77430;SDS011;66498;48.564;19.272;2023-08-24T04:49:31;17.92;;;14.82;;
77430;SDS011;66498;48.564;19.272;2023-08-24T04:51:57;16.13;;;13.43;;
77430;SDS011;66498;48.564;19.272;2023-08-24T04:54:25;14.77;;;12.85;;
77430;SDS011;66498;48.564;19.272;2023-08-24T04:56:50;15.57;;;13.57;;
77430;SDS011;66498;48.564;19.272;2023-08-24T04:59:19;19.50;;;14.27;;
77430;SDS011;66498;48.564;19.272;2023-08-24T05:01:45;18.05;;;14.85;;
77430;SDS011;66498;48.564;19.272;2023-08-24T05:04:10;21.35;;;15.45;;
77430;SDS011;66498;48.564;19.272;2023-08-24T05:06:36;19.55;;;15.68;;
77430;SDS011;66498;48.564;19.272;2023-08-24T05:09:02;19.33;;;15.52;;
77430;SDS011;66498;48.564;19.272;2023-08-24T05:11:29;17.75;;;15.63;;
77430;SDS011;66498;48.564;19.272;2023-08-24T05:13:55;20.42;;;15.93;;
77430;SDS011;66498;48.564;19.272;2023-08-24T05:16:21;18.17;;;14.80;;
77430;SDS011;66498;48.564;19.272;2023-08-24T05:18:48;18.23;;;15.25;;
77430;SDS011;66498;48.564;19.272;2023-08-24T05:21:35;19.83;;;15.38;;
77430;SDS011;66498;48.564;19.272;2023-08-24T05:24:04;19.65;;;15.52;;
77430;SDS011;66498;48.564;19.272;2023-08-24T05:26:30;17.80;;;15.65;;
77430;SDS011;66498;48.564;19.272;2023-08-24T05:28:59;21.13;;;17.08;;
77430;SDS011;66498;48.564;19.272;2023-08-24T05:31:54;22.25;;;17.33;;
77430;SDS011;66498;48.564;19.272;2023-08-24T05:34:24;22.20;;;16.75;;
77430;SDS011;66498;48.564;19.272;2023-08-24T05:36:50;25.52;;;18.15;;
77430;SDS011;66498;48.564;19.272;2023-08-24T05:39:25;24.75;;;18.42;;
77430;SDS011;66498;48.564;19.272;2023-08-24T05:41:56;24.00;;;17.85;;
77430;SDS011;66498;48.564;19.272;2023-08-24T05:44:22;28.77;;;20.13;;
77430;SDS011;66498;48.564;19.272;2023-08-24T05:46:49;25.63;;;19.67;;
77430;SDS011;66498;48.564;19.272;2023-08-24T05:49:14;21.95;;;18.48;;
77430;SDS011;66498;48.564;19.272;2023-08-24T05:51:41;21.55;;;16.67;;
77430;SDS011;66498;48.564;19.272;2023-08-24T05:54:09;22.67;;;18.00;;
77430;SDS011;66498;48.564;19.272;2023-08-24T05:57:17;20.15;;;16.92;;
77430;SDS011;66498;48.564;19.272;2023-08-24T05:59:45;21.65;;;16.85;;
77430;SDS011;66498;48.564;19.272;2023-08-24T06:02:11;21.40;;;16.50;;
77430;SDS011;66498;48.564;19.272;2023-08-24T06:04:40;20.23;;;15.68;;
77430;SDS011;66498;48.564;19.272;2023-08-24T06:07:09;18.52;;;15.13;;
77430;SDS011;66498;48.564;19.272;2023-08-24T06:09:54;17.67;;;15.02;;
77430;SDS011;66498;48.564;19.272;2023-08-24T06:12:38;18.60;;;15.48;;
77430;SDS011;66498;48.564;19.272;2023-08-24T06:15:23;19.33;;;16.17;;
77430;SDS011;66498;48.564;19.272;2023-08-24T06:18:30;17.33;;;14.85;;
77430;SDS011;66498;48.564;19.272;2023-08-24T06:21:27;19.98;;;15.63;;
77430;SDS011;66498;48.564;19.272;2023-08-24T06:24:19;19.95;;;14.95;;
77430;SDS011;66498;48.564;19.272;2023-08-24T06:27:05;19.95;;;15.05;;
77430;SDS011;66498;48.564;19.272;2023-08-24T06:29:31;18.77;;;15.15;;
77430;SDS011;66498;48.564;19.272;2023-08-24T06:32:18;18.13;;;14.95;;
77430;SDS011;66498;48.564;19.272;2023-08-24T06:34:44;17.27;;;13.90;;
77430;SDS011;66498;48.564;19.272;2023-08-24T06:37:11;16.92;;;14.25;;
77430;SDS011;66498;48.564;19.272;2023-08-24T06:39:39;17.35;;;13.75;;
77430;SDS011;66498;48.564;19.272;2023-08-24T06:42:28;17.77;;;13.65;;
77430;SDS011;66498;48.564;19.272;2023-08-24T06:45:10;17.92;;;13.50;;
77430;SDS011;66498;48.564;19.272;2023-08-24T06:47:35;16.70;;;12.77;;
77430;SDS011;66498;48.564;19.272;2023-08-24T06:50:04;16.08;;;11.98;;
77430;SDS011;66498;48.564;19.272;2023-08-24T06:52:30;13.27;;;10.70;;
77430;SDS011;66498;48.564;19.272;2023-08-24T06:54:57;13.30;;;10.82;;
77430;SDS011;66498;48.564;19.272;2023-08-24T06:57:26;12.27;;;9.90;;
77430;SDS011;66498;48.564;19.272;2023-08-24T06:59:51;13.65;;;10.43;;
77430;SDS011;66498;48.564;19.272;2023-08-24T07:02:18;12.82;;;10.18;;
77430;SDS011;66498;48.564;19.272;2023-08-24T07:04:46;11.95;;;9.82;;
77430;SDS011;66498;48.564;19.272;2023-08-24T07:07:12;12.48;;;9.98;;
77430;SDS011;66498;48.564;19.272;2023-08-24T07:09:39;11.95;;;9.80;;
77430;SDS011;66498;48.564;19.272;2023-08-24T07:12:07;11.48;;;10.00;;
77430;SDS011;66498;48.564;19.272;2023-08-24T07:14:38;12.98;;;10.02;;
77430;SDS011;66498;48.564;19.272;2023-08-24T07:17:24;12.85;;;9.73;;
77430;SDS011;66498;48.564;19.272;2023-08-24T07:19:52;11.13;;;9.15;;
77430;SDS011;66498;48.564;19.272;2023-08-24T07:22:18;11.57;;;8.90;;
77430;SDS011;66498;48.564;19.272;2023-08-24T07:24:44;12.32;;;9.38;;
77430;SDS011;66498;48.564;19.272;2023-08-24T07:27:11;11.32;;;8.90;;
77430;SDS011;66498;48.564;19.272;2023-08-24T07:29:42;12.85;;;8.88;;
77430;SDS011;66498;48.564;19.272;2023-08-24T07:32:17;11.18;;;9.30;;
77430;SDS011;66498;48.564;19.272;2023-08-24T07:34:49;11.90;;;8.85;;
77430;SDS011;66498;48.564;19.272;2023-08-24T07:37:25;11.65;;;8.65;;
77430;SDS011;66498;48.564;19.272;2023-08-24T07:40:02;13.02;;;8.25;;
77430;SDS011;66498;48.564;19.272;2023-08-24T07:42:42;9.65;;;8.60;;
77430;SDS011;66498;48.564;19.272;2023-08-24T07:45:20;11.73;;;8.82;;
77430;SDS011;66498;48.564;19.272;2023-08-24T07:47:46;11.32;;;9.32;;
77430;SDS011;66498;48.564;19.272;2023-08-24T07:50:12;11.60;;;8.15;;
77430;SDS011;66498;48.564;19.272;2023-08-24T07:52:38;9.23;;;7.82;;
77430;SDS011;66498;48.564;19.272;2023-08-24T07:55:04;10.20;;;7.88;;
77430;SDS011;66498;48.564;19.272;2023-08-24T07:57:36;9.88;;;7.97;;
77430;SDS011;66498;48.564;19.272;2023-08-24T08:00:04;9.40;;;7.85;;
77430;SDS011;66498;48.564;19.272;2023-08-24T08:02:31;9.90;;;7.60;;
77430;SDS011;66498;48.564;19.272;2023-08-24T08:05:06;9.13;;;7.30;;
77430;SDS011;66498;48.564;19.272;2023-08-24T08:07:35;10.13;;;7.70;;
77430;SDS011;66498;48.564;19.272;2023-08-24T08:10:58;8.93;;;7.47;;
77430;SDS011;66498;48.564;19.272;2023-08-24T08:13:27;9.80;;;8.30;;
77430;SDS011;66498;48.564;19.272;2023-08-24T08:16:15;8.75;;;7.28;;
77430;SDS011;66498;48.564;19.272;2023-08-24T08:18:47;8.10;;;7.05;;
77430;SDS011;66498;48.564;19.272;2023-08-24T08:21:24;9.27;;;6.88;;
77430;SDS011;66498;48.564;19.272;2023-08-24T08:23:50;8.98;;;6.70;;
77430;SDS011;66498;48.564;19.272;2023-08-24T08:26:16;10.77;;;7.03;;
77430;SDS011;66498;48.564;19.272;2023-08-24T08:29:08;8.27;;;7.22;;
77430;SDS011;66498;48.564;19.272;2023-08-24T08:31:34;10.80;;;6.82;;
77430;SDS011;66498;48.564;19.272;2023-08-24T08:34:00;8.65;;;6.47;;
77430;SDS011;66498;48.564;19.272;2023-08-24T08:36:26;8.95;;;6.82;;
77430;SDS011;66498;48.564;19.272;2023-08-24T08:38:54;9.32;;;6.88;;
77430;SDS011;66498;48.564;19.272;2023-08-24T08:45:01;8.82;;;6.80;;
77430;SDS011;66498;48.564;19.272;2023-08-24T08:48:17;9.43;;;7.10;;
77430;SDS011;66498;48.564;19.272;2023-08-24T08:51:50;10.27;;;5.95;;
77430;SDS011;66498;48.564;19.272;2023-08-24T08:58:03;7.63;;;6.20;;
77430;SDS011;66498;48.564;19.272;2023-08-24T09:00:31;14.32;;;6.20;;
77430;SDS011;66498;48.564;19.272;2023-08-24T09:02:57;7.07;;;5.60;;
77430;SDS011;66498;48.564;19.272;2023-08-24T09:05:41;7.10;;;5.45;;
77430;SDS011;66498;48.564;19.272;2023-08-24T09:09:05;6.50;;;5.20;;
77430;SDS011;66498;48.564;19.272;2023-08-24T09:11:32;7.40;;;5.53;;
77430;SDS011;66498;48.564;19.272;2023-08-24T09:13:58;7.43;;;5.55;;
77430;SDS011;66498;48.564;19.272;2023-08-24T09:16:28;8.27;;;5.80;;
77430;SDS011;66498;48.564;19.272;2023-08-24T09:18:54;10.00;;;5.53;;
77430;SDS011;66498;48.564;19.272;2023-08-24T09:26:02;8.85;;;5.40;;
77430;SDS011;66498;48.564;19.272;2023-08-24T09:28:49;7.05;;;5.38;;
77430;SDS011;66498;48.564;19.272;2023-08-24T09:31:45;6.38;;;4.90;;
77430;SDS011;66498;48.564;19.272;2023-08-24T09:34:54;6.45;;;4.93;;
77430;SDS011;66498;48.564;19.272;2023-08-24T09:37:21;6.47;;;4.47;;
77430;SDS011;66498;48.564;19.272;2023-08-24T09:39:50;7.70;;;5.45;;
77430;SDS011;66498;48.564;19.272;2023-08-24T09:42:26;7.97;;;5.00;;
77430;SDS011;66498;48.564;19.272;2023-08-24T09:44:52;7.45;;;5.05;;
77430;SDS011;66498;48.564;19.272;2023-08-24T09:47:17;7.35;;;4.75;;
77430;SDS011;66498;48.564;19.272;2023-08-24T09:49:43;7.95;;;5.00;;
77430;SDS011;66498;48.564;19.272;2023-08-24T09:52:09;9.82;;;4.93;;
77430;SDS011;66498;48.564;19.272;2023-08-24T09:54:36;8.70;;;4.90;;
77430;SDS011;66498;48.564;19.272;2023-08-24T09:57:04;7.35;;;5.00;;
77430;SDS011;66498;48.564;19.272;2023-08-24T09:59:32;8.55;;;4.95;;
77430;SDS011;66498;48.564;19.272;2023-08-24T10:02:00;7.82;;;4.93;;
77430;SDS011;66498;48.564;19.272;2023-08-24T10:04:32;7.20;;;4.90;;
77430;SDS011;66498;48.564;19.272;2023-08-24T10:07:08;6.25;;;4.70;;
77430;SDS011;66498;48.564;19.272;2023-08-24T10:09:45;6.95;;;4.85;;
77430;SDS011;66498;48.564;19.272;2023-08-24T10:12:23;8.90;;;4.80;;
77430;SDS011;66498;48.564;19.272;2023-08-24T10:17:23;7.13;;;4.72;;
77430;SDS011;66498;48.564;19.272;2023-08-24T10:20:00;5.38;;;4.22;;
77430;SDS011;66498;48.564;19.272;2023-08-24T10:23:09;5.57;;;4.32;;
77430;SDS011;66498;48.564;19.272;2023-08-24T10:26:12;5.53;;;4.38;;
77430;SDS011;66498;48.564;19.272;2023-08-24T10:28:46;5.72;;;4.72;;
77430;SDS011;66498;48.564;19.272;2023-08-24T10:31:19;7.70;;;4.40;;
77430;SDS011;66498;48.564;19.272;2023-08-24T10:33:49;6.68;;;4.40;;
77430;SDS011;66498;48.564;19.272;2023-08-24T10:36:20;5.93;;;4.35;;
77430;SDS011;66498;48.564;19.272;2023-08-24T10:39:06;6.45;;;4.30;;
77430;SDS011;66498;48.564;19.272;2023-08-24T10:42:13;6.90;;;4.47;;
77430;SDS011;66498;48.564;19.272;2023-08-24T10:46:11;6.35;;;4.40;;
77430;SDS011;66498;48.564;19.272;2023-08-24T10:55:00;7.47;;;4.45;;
77430;SDS011;66498;48.564;19.272;2023-08-24T10:57:38;7.10;;;4.78;;
77430;SDS011;66498;48.564;19.272;2023-08-24T11:02:50;7.05;;;4.30;;
77430;SDS011;66498;48.564;19.272;2023-08-24T11:05:21;8.32;;;4.63;;
77430;SDS011;66498;48.564;19.272;2023-08-24T11:08:09;7.47;;;4.35;;
77430;SDS011;66498;48.564;19.272;2023-08-24T11:10:46;6.55;;;4.35;;
77430;SDS011;66498;48.564;19.272;2023-08-24T11:16:53;7.07;;;4.50;;
77430;SDS011;66498;48.564;19.272;2023-08-24T11:19:20;6.63;;;4.40;;
77430;SDS011;66498;48.564;19.272;2023-08-24T11:25:54;6.88;;;4.78;;
77430;SDS011;66498;48.564;19.272;2023-08-24T11:28:41;7.05;;;4.60;;
77430;SDS011;66498;48.564;19.272;2023-08-24T11:31:14;6.40;;;4.32;;
77430;SDS011;66498;48.564;19.272;2023-08-24T11:34:43;5.28;;;4.05;;
77430;SDS011;66498;48.564;19.272;2023-08-24T11:37:50;5.72;;;3.97;;
77430;SDS011;66498;48.564;19.272;2023-08-24T11:40:46;6.32;;;4.07;;
77430;SDS011;66498;48.564;19.272;2023-08-24T11:43:24;6.18;;;4.00;;
77430;SDS011;66498;48.564;19.272;2023-08-24T11:45:55;6.05;;;4.18;;
77430;SDS011;66498;48.564;19.272;2023-08-24T11:48:24;6.00;;;4.05;;
77430;SDS011;66498;48.564;19.272;2023-08-24T11:50:55;5.68;;;3.60;;
77430;SDS011;66498;48.564;19.272;2023-08-24T11:53:21;5.82;;;3.72;;
77430;SDS011;66498;48.564;19.272;2023-08-24T11:56:08;6.78;;;3.67;;
77430;SDS011;66498;48.564;19.272;2023-08-24T11:58:39;6.40;;;4.32;;
77430;SDS011;66498;48.564;19.272;2023-08-24T12:01:06;7.20;;;3.97;;
77430;SDS011;66498;48.564;19.272;2023-08-24T12:03:37;5.45;;;3.60;;
77430;SDS011;66498;48.564;19.272;2023-08-24T12:06:10;6.15;;;4.20;;
77430;SDS011;66498;48.564;19.272;2023-08-24T12:08:38;7.22;;;4.60;;
77430;SDS011;66498;48.564;19.272;2023-08-24T12:11:16;6.65;;;3.50;;
77430;SDS011;66498;48.564;19.272;2023-08-24T12:13:46;7.43;;;3.95;;
77430;SDS011;66498;48.564;19.272;2023-08-24T12:16:15;6.38;;;3.92;;
77430;SDS011;66498;48.564;19.272;2023-08-24T12:18:55;5.90;;;3.90;;
77430;SDS011;66498;48.564;19.272;2023-08-24T12:21:22;8.60;;;4.40;;
77430;SDS011;66498;48.564;19.272;2023-08-24T12:23:55;5.82;;;3.90;;
77430;SDS011;66498;48.564;19.272;2023-08-24T12:26:39;6.88;;;3.72;;
77430;SDS011;66498;48.564;19.272;2023-08-24T12:29:05;6.15;;;4.30;;
77430;SDS011;66498;48.564;19.272;2023-08-24T12:31:32;5.30;;;3.78;;
77430;SDS011;66498;48.564;19.272;2023-08-24T12:33:59;6.15;;;3.83;;
77430;SDS011;66498;48.564;19.272;2023-08-24T12:36:29;6.22;;;3.90;;
77430;SDS011;66498;48.564;19.272;2023-08-24T12:39:01;5.45;;;3.72;;
77430;SDS011;66498;48.564;19.272;2023-08-24T12:41:29;5.15;;;3.63;;
77430;SDS011;66498;48.564;19.272;2023-08-24T12:43:55;5.78;;;3.60;;
77430;SDS011;66498;48.564;19.272;2023-08-24T12:46:21;6.70;;;3.78;;
77430;SDS011;66498;48.564;19.272;2023-08-24T12:48:49;5.05;;;3.65;;
77430;SDS011;66498;48.564;19.272;2023-08-24T12:51:15;5.78;;;3.70;;
77430;SDS011;66498;48.564;19.272;2023-08-24T12:53:41;7.72;;;3.90;;
77430;SDS011;66498;48.564;19.272;2023-08-24T12:56:07;5.47;;;3.90;;
77430;SDS011;66498;48.564;19.272;2023-08-24T12:58:35;7.13;;;3.75;;
77430;SDS011;66498;48.564;19.272;2023-08-24T13:01:01;6.38;;;3.58;;
77430;SDS011;66498;48.564;19.272;2023-08-24T13:03:27;8.30;;;4.13;;
77430;SDS011;66498;48.564;19.272;2023-08-24T13:05:53;6.88;;;4.18;;
77430;SDS011;66498;48.564;19.272;2023-08-24T13:08:19;6.55;;;3.58;;
77430;SDS011;66498;48.564;19.272;2023-08-24T13:10:46;6.25;;;3.85;;
77430;SDS011;66498;48.564;19.272;2023-08-24T13:13:13;6.75;;;3.78;;
77430;SDS011;66498;48.564;19.272;2023-08-24T13:15:47;7.25;;;4.07;;
77430;SDS011;66498;48.564;19.272;2023-08-24T13:18:15;6.47;;;4.07;;
77430;SDS011;66498;48.564;19.272;2023-08-24T13:20:41;6.70;;;4.07;;
77430;SDS011;66498;48.564;19.272;2023-08-24T13:23:07;7.65;;;3.90;;
77430;SDS011;66498;48.564;19.272;2023-08-24T13:25:34;8.25;;;4.07;;
77430;SDS011;66498;48.564;19.272;2023-08-24T13:28:00;18.33;;;5.95;;
77430;SDS011;66498;48.564;19.272;2023-08-24T13:30:26;12.30;;;4.53;;
77430;SDS011;66498;48.564;19.272;2023-08-24T13:32:52;5.68;;;4.15;;
77430;SDS011;66498;48.564;19.272;2023-08-24T13:35:18;9.70;;;4.38;;
77430;SDS011;66498;48.564;19.272;2023-08-24T13:37:44;6.18;;;3.80;;
77430;SDS011;66498;48.564;19.272;2023-08-24T13:40:10;6.07;;;3.95;;
77430;SDS011;66498;48.564;19.272;2023-08-24T13:42:37;7.05;;;4.03;;
77430;SDS011;66498;48.564;19.272;2023-08-24T13:45:03;6.35;;;4.30;;
77430;SDS011;66498;48.564;19.272;2023-08-24T13:47:29;7.25;;;3.85;;
77430;SDS011;66498;48.564;19.272;2023-08-24T13:49:55;8.10;;;4.53;;
77430;SDS011;66498;48.564;19.272;2023-08-24T13:52:22;6.28;;;3.92;;
77430;SDS011;66498;48.564;19.272;2023-08-24T13:54:48;6.38;;;3.95;;
77430;SDS011;66498;48.564;19.272;2023-08-24T13:57:13;6.20;;;4.30;;
77430;SDS011;66498;48.564;19.272;2023-08-24T13:59:39;7.57;;;4.30;;
77430;SDS011;66498;48.564;19.272;2023-08-24T14:02:05;7.30;;;4.53;;
77430;SDS011;66498;48.564;19.272;2023-08-24T14:04:31;7.03;;;4.10;;
77430;SDS011;66498;48.564;19.272;2023-08-24T14:06:58;6.63;;;4.25;;
77430;SDS011;66498;48.564;19.272;2023-08-24T14:09:24;6.85;;;3.95;;
77430;SDS011;66498;48.564;19.272;2023-08-24T14:11:50;7.50;;;4.40;;
77430;SDS011;66498;48.564;19.272;2023-08-24T14:14:15;8.25;;;4.15;;
77430;SDS011;66498;48.564;19.272;2023-08-24T14:16:41;7.03;;;4.20;;
77430;SDS011;66498;48.564;19.272;2023-08-24T14:19:07;9.98;;;4.32;;
77430;SDS011;66498;48.564;19.272;2023-08-24T14:21:33;6.22;;;3.90;;
77430;SDS011;66498;48.564;19.272;2023-08-24T14:23:59;7.97;;;3.97;;
77430;SDS011;66498;48.564;19.272;2023-08-24T14:26:24;6.65;;;3.95;;
77430;SDS011;66498;48.564;19.272;2023-08-24T14:28:54;7.85;;;4.10;;
77430;SDS011;66498;48.564;19.272;2023-08-24T14:31:25;6.60;;;4.40;;
77430;SDS011;66498;48.564;19.272;2023-08-24T14:33:53;12.13;;;4.50;;
77430;SDS011;66498;48.564;19.272;2023-08-24T14:36:19;6.85;;;4.25;;
77430;SDS011;66498;48.564;19.272;2023-08-24T14:38:46;13.13;;;4.40;;
77430;SDS011;66498;48.564;19.272;2023-08-24T14:41:16;7.57;;;4.22;;
77430;SDS011;66498;48.564;19.272;2023-08-24T14:43:41;6.22;;;3.78;;
77430;SDS011;66498;48.564;19.272;2023-08-24T14:46:07;7.78;;;4.43;;
77430;SDS011;66498;48.564;19.272;2023-08-24T14:48:33;7.30;;;4.20;;
77430;SDS011;66498;48.564;19.272;2023-08-24T14:51:00;6.30;;;4.15;;
77430;SDS011;66498;48.564;19.272;2023-08-24T14:53:26;7.07;;;3.78;;
77430;SDS011;66498;48.564;19.272;2023-08-24T14:55:53;9.35;;;3.95;;
77430;SDS011;66498;48.564;19.272;2023-08-24T14:58:23;6.25;;;3.92;;
77430;SDS011;66498;48.564;19.272;2023-08-24T15:00:51;7.82;;;3.95;;
77430;SDS011;66498;48.564;19.272;2023-08-24T15:03:18;6.57;;;3.80;;
77430;SDS011;66498;48.564;19.272;2023-08-24T15:06:03;6.93;;;3.97;;
77430;SDS011;66498;48.564;19.272;2023-08-24T15:08:33;6.05;;;3.58;;
77430;SDS011;66498;48.564;19.272;2023-08-24T15:11:00;6.68;;;3.92;;
77430;SDS011;66498;48.564;19.272;2023-08-24T15:13:26;6.03;;;3.70;;
77430;SDS011;66498;48.564;19.272;2023-08-24T15:15:54;7.00;;;4.25;;